Time;durP1;ratioP1;P1;durP2;ratioP2;P2;SDS_P1;SDS_P2;PMS_P1;PMS_P2;Temp;Humidity;BMP_temperature;BMP_pressure;BME280_temperature;BME280_humidity;BME280_pressure;Samples;Min_cycle;Max_cycle;Signal;HPM_P1;HPM_P2
2023/01/04 00:00:24;;;;;;;1.13;0.97;;;8.70;99.90;;;;;;5064221;28;21285;-72
2023/01/04 00:02:51;;;;;;;1.33;1.23;;;8.60;99.90;;;;;;5067846;28;20892;-73
2023/01/04 00:05:19;;;;;;;1.10;0.80;;;8.60;99.90;;;;;;5066916;28;20507;-73
2023/01/04 00:07:46;;;;;;;1.60;1.10;;;8.60;99.90;;;;;;5030039;28;20510;-73
2023/01/04 00:10:13;;;;;;;2.20;2.10;;;8.50;99.90;;;;;;5067619;28;20501;-73
2023/01/04 00:12:40;;;;;;;1.60;0.90;;;8.50;99.90;;;;;;5079220;28;20509;-72
2023/01/04 00:15:08;;;;;;;6.43;1.20;;;8.50;99.90;;;;;;5070798;28;20495;-73
2023/01/04 00:17:35;;;;;;;1.10;0.93;;;8.50;99.90;;;;;;5065672;28;20602;-72
2023/01/04 00:20:02;;;;;;;1.30;1.10;;;8.50;99.90;;;;;;5067526;28;20543;-72
2023/01/04 00:22:33;;;;;;;2.47;1.00;;;8.50;99.90;;;;;;5065908;28;20522;-73
2023/01/04 00:25:00;;;;;;;1.03;0.90;;;8.50;99.90;;;;;;5068280;28;20484;-72
2023/01/04 00:27:27;;;;;;;1.60;1.47;;;8.60;99.90;;;;;;5067378;28;21014;-74
2023/01/04 00:29:54;;;;;;;1.70;0.90;;;8.60;99.90;;;;;;5057874;28;20991;-73
2023/01/04 00:32:21;;;;;;;1.90;1.00;;;8.60;99.90;;;;;;5058336;28;20794;-73
2023/01/04 00:34:51;;;;;;;5.27;0.93;;;8.60;99.90;;;;;;5061184;28;20947;-73
2023/01/04 00:37:18;;;;;;;2.27;1.20;;;8.60;99.90;;;;;;5065893;28;20496;-73
2023/01/04 00:39:46;;;;;;;1.50;1.33;;;8.80;99.90;;;;;;5077868;28;20481;-73
2023/01/04 00:42:13;;;;;;;1.20;1.07;;;8.80;99.90;;;;;;5013928;28;20839;-73
2023/01/04 00:44:42;;;;;;;1.07;0.87;;;8.90;99.90;;;;;;5044588;28;20580;-73
2023/01/04 00:47:10;;;;;;;1.07;0.97;;;8.80;99.90;;;;;;5060628;28;20887;-73
2023/01/04 00:49:37;;;;;;;1.00;0.80;;;8.90;99.90;;;;;;5063332;28;20460;-73
2023/01/04 00:52:05;;;;;;;2.80;1.43;;;8.90;99.90;;;;;;5063194;28;20462;-73
2023/01/04 00:54:32;;;;;;;1.07;0.70;;;8.90;99.90;;;;;;5064659;28;20968;-73
2023/01/04 00:57:00;;;;;;;8.63;1.37;;;8.90;99.90;;;;;;5069155;28;20880;-73
2023/01/04 00:59:28;;;;;;;4.63;1.30;;;8.90;99.90;;;;;;5063254;28;20570;-73
2023/01/04 01:01:54;;;;;;;3.53;1.10;;;9.00;99.90;;;;;;5064319;28;20438;-73
2023/01/04 01:04:23;;;;;;;1.73;1.33;;;9.00;99.90;;;;;;5064118;28;20533;-73
2023/01/04 01:06:52;;;;;;;1.97;1.10;;;9.00;99.90;;;;;;5064104;28;20457;-73
2023/01/04 01:09:21;;;;;;;5.00;1.33;;;9.00;99.90;;;;;;5070528;28;20459;-73
2023/01/04 01:11:48;;;;;;;1.57;1.47;;;9.10;99.90;;;;;;5075698;28;20418;-74
2023/01/04 01:14:19;;;;;;;1.40;0.83;;;9.00;99.90;;;;;;5068671;28;20445;-73
2023/01/04 01:16:47;;;;;;;1.00;0.90;;;9.00;99.90;;;;;;5064959;28;20541;-73
2023/01/04 01:19:14;;;;;;;6.63;1.47;;;9.00;99.90;;;;;;5072667;28;20551;-74
2023/01/04 01:21:41;;;;;;;1.20;0.90;;;9.00;99.90;;;;;;5069791;28;20456;-74
2023/01/04 01:24:12;;;;;;;3.63;1.23;;;8.90;99.90;;;;;;5045243;28;21154;-72
2023/01/04 01:26:42;;;;;;;1.40;1.30;;;9.00;99.90;;;;;;5072445;28;20449;-73
2023/01/04 01:29:10;;;;;;;4.20;1.27;;;8.90;99.90;;;;;;5062208;28;21056;-72
2023/01/04 01:31:40;;;;;;;2.13;1.30;;;8.90;99.90;;;;;;5064634;28;20464;-73
2023/01/04 01:34:07;;;;;;;2.83;1.10;;;8.70;99.90;;;;;;5067195;28;20960;-73
2023/01/04 01:36:34;;;;;;;1.70;1.03;;;8.70;99.90;;;;;;5063941;28;20964;-73
2023/01/04 01:39:02;;;;;;;1.20;1.00;;;8.70;99.90;;;;;;5073290;28;20490;-73
2023/01/04 01:41:31;;;;;;;1.67;1.20;;;8.60;99.90;;;;;;5068908;28;20542;-73
2023/01/04 01:44:01;;;;;;;1.50;0.80;;;8.50;99.90;;;;;;5064639;28;20617;-73
2023/01/04 01:46:34;;;;;;;1.23;0.90;;;8.50;99.90;;;;;;5073090;28;20463;-73
2023/01/04 01:49:05;;;;;;;8.00;1.63;;;8.50;99.90;;;;;;5038354;28;20453;-74
2023/01/04 01:51:33;;;;;;;1.87;0.97;;;8.40;99.90;;;;;;5067350;28;21003;-72
2023/01/04 01:54:06;;;;;;;6.00;1.37;;;8.40;99.90;;;;;;5072279;28;20477;-73
2023/01/04 01:56:37;;;;;;;3.40;1.30;;;8.40;99.90;;;;;;5064848;28;20485;-73
2023/01/04 01:59:06;;;;;;;0.90;0.70;;;8.40;99.90;;;;;;5064771;28;20536;-73
2023/01/04 02:01:34;;;;;;;1.77;1.23;;;8.40;99.90;;;;;;5063334;28;20537;-71
2023/01/04 02:04:05;;;;;;;2.10;1.00;;;8.40;99.90;;;;;;5064641;28;20433;-73
2023/01/04 02:06:35;;;;;;;2.90;1.20;;;8.40;99.90;;;;;;5062971;28;20567;-74
2023/01/04 02:09:05;;;;;;;4.90;1.47;;;8.40;99.90;;;;;;5065262;28;20514;-72
2023/01/04 02:11:35;;;;;;;2.43;0.90;;;8.40;99.90;;;;;;5077826;28;20498;-73
2023/01/04 02:17:01;;;;;;;1.57;0.90;;;8.40;99.90;;;;;;5067415;28;20547;-73
2023/01/04 02:19:55;;;;;;;8.20;1.40;;;8.50;99.90;;;;;;5071666;28;20455;-73
2023/01/04 02:23:13;;;;;;;1.13;1.00;;;8.50;99.90;;;;;;5063883;28;21005;-73
2023/01/04 02:26:16;;;;;;;1.63;1.53;;;8.50;99.90;;;;;;5028821;28;20515;-73
2023/01/04 02:29:00;;;;;;;1.40;0.83;;;8.50;99.90;;;;;;5065618;28;20556;-73
2023/01/04 02:31:36;;;;;;;2.20;1.10;;;8.40;99.90;;;;;;5062532;28;20946;-74
2023/01/04 02:34:13;;;;;;;1.13;0.90;;;8.40;99.90;;;;;;5070703;28;20455;-75
2023/01/04 02:36:48;;;;;;;3.90;1.93;;;8.40;99.90;;;;;;5062792;28;20480;-74
2023/01/04 02:39:26;;;;;;;1.30;0.83;;;8.30;99.90;;;;;;5063798;28;20468;-72
2023/01/04 02:42:05;;;;;;;6.73;1.10;;;8.30;99.90;;;;;;5066497;28;20434;-72
2023/01/04 02:44:54;;;;;;;2.23;1.00;;;8.30;99.90;;;;;;5060302;28;20505;-72
2023/01/04 02:50:31;;;;;;;10.13;1.77;;;8.20;99.90;;;;;;5058990;28;20570;-73
2023/01/04 02:53:01;;;;;;;2.50;1.00;;;8.20;99.90;;;;;;5067642;28;21098;-73
2023/01/04 02:55:46;;;;;;;3.17;0.70;;;8.10;99.90;;;;;;5060396;28;20514;-73
2023/01/04 02:58:31;;;;;;;1.13;0.80;;;8.10;99.90;;;;;;5065367;28;21073;-73
2023/01/04 03:06:58;;;;;;;1.00;0.80;;;8.10;99.90;;;;;;5064353;28;20429;-73
2023/01/04 03:09:31;;;;;;;1.27;1.00;;;8.10;99.90;;;;;;5072226;28;20469;-71
2023/01/04 03:14:51;;;;;;;1.30;0.90;;;8.20;99.90;;;;;;5059900;28;20501;-73
2023/01/04 03:17:22;;;;;;;1.73;1.23;;;8.30;99.90;;;;;;5063046;28;20578;-72
2023/01/04 03:19:55;;;;;;;0.90;0.73;;;8.30;99.90;;;;;;5070865;28;20457;-73
2023/01/04 03:36:37;;;;;;;4.80;1.30;;;8.40;99.90;;;;;;5072471;28;20523;-74
2023/01/04 03:50:37;;;;;;;2.40;1.93;;;8.70;99.90;;;;;;5069506;28;20535;-73
2023/01/04 03:53:06;;;;;;;1.60;1.20;;;8.70;99.90;;;;;;5062380;28;20463;-73
2023/01/04 03:55:37;;;;;;;1.20;0.90;;;8.70;99.90;;;;;;5062015;28;20495;-77
2023/01/04 03:58:04;;;;;;;1.77;1.17;;;8.80;99.90;;;;;;5066310;28;20511;-73
2023/01/04 04:00:31;;;;;;;1.00;0.83;;;8.80;99.90;;;;;;5058457;28;20448;-73
2023/01/04 04:03:06;;;;;;;1.30;1.20;;;8.80;99.90;;;;;;5067714;28;20865;-73
2023/01/04 04:08:26;;;;;;;1.13;1.03;;;9.00;99.90;;;;;;5077501;28;20462;-72
2023/01/04 04:10:54;;;;;;;1.03;0.90;;;9.00;99.90;;;;;;5066814;28;20451;-73
2023/01/04 04:13:21;;;;;;;1.47;1.00;;;9.00;99.90;;;;;;5066564;28;20521;-74
2023/01/04 04:15:48;;;;;;;4.10;1.40;;;9.00;99.90;;;;;;5087647;28;20462;-73
2023/01/04 04:18:16;;;;;;;1.50;1.40;;;9.00;99.90;;;;;;5063222;28;20586;-73
2023/01/04 04:20:42;;;;;;;2.30;1.40;;;9.00;99.90;;;;;;5083777;28;20463;-74
2023/01/04 04:23:09;;;;;;;1.10;1.00;;;9.00;99.90;;;;;;5081383;28;20460;-73
2023/01/04 04:25:38;;;;;;;6.00;1.33;;;8.90;99.90;;;;;;5079128;28;20463;-73
2023/01/04 04:28:06;;;;;;;2.30;1.57;;;8.90;99.90;;;;;;5078262;28;20943;-73
2023/01/04 04:30:33;;;;;;;2.90;1.43;;;9.00;99.90;;;;;;5088008;28;20541;-73
2023/01/04 04:33:00;;;;;;;3.63;1.00;;;8.90;99.90;;;;;;5083398;28;20455;-73
2023/01/04 04:35:29;;;;;;;1.97;1.00;;;8.90;99.90;;;;;;5085286;28;20451;-73
2023/01/04 04:37:56;;;;;;;1.77;1.47;;;9.00;99.90;;;;;;5086179;28;20540;-73
2023/01/04 04:43:12;;;;;;;6.83;1.60;;;9.00;99.90;;;;;;5084108;28;20857;-73
2023/01/04 04:45:39;;;;;;;1.73;1.03;;;8.90;99.90;;;;;;5083407;28;20434;-73
2023/01/04 04:48:06;;;;;;;1.00;0.70;;;9.00;99.90;;;;;;5085484;28;20539;-73
2023/01/04 04:50:35;;;;;;;0.93;0.77;;;8.90;99.90;;;;;;5086827;28;20441;-73
2023/01/04 04:53:02;;;;;;;9.53;1.40;;;9.00;99.90;;;;;;5089193;28;20440;-73
2023/01/04 04:55:29;;;;;;;1.13;0.83;;;9.00;99.90;;;;;;5091095;28;20541;-74
2023/01/04 04:57:56;;;;;;;2.80;1.00;;;9.00;99.90;;;;;;5085891;28;20491;-73
2023/01/04 05:00:26;;;;;;;1.00;0.80;;;9.00;99.90;;;;;;5088744;28;20544;-73
2023/01/04 05:02:53;;;;;;;1.33;1.23;;;9.00;99.90;;;;;;5081250;28;20565;-73
2023/01/04 05:05:20;;;;;;;1.10;1.00;;;9.10;99.90;;;;;;5084676;28;21019;-74
2023/01/04 05:07:47;;;;;;;1.20;1.00;;;9.10;99.90;;;;;;5098226;28;20505;-72
2023/01/04 05:10:14;;;;;;;1.43;1.10;;;9.10;99.90;;;;;;5092560;28;21063;-74
2023/01/04 05:12:58;;;;;;;3.33;1.30;;;9.20;99.90;;;;;;5089167;28;20439;-74
2023/01/04 05:15:27;;;;;;;1.80;1.30;;;9.10;99.90;;;;;;5088402;28;20508;-73
2023/01/04 05:17:54;;;;;;;6.80;1.10;;;9.10;99.90;;;;;;5087555;28;20613;-74
2023/01/04 05:20:24;;;;;;;1.13;1.00;;;9.20;99.90;;;;;;5087224;28;20457;-74
2023/01/04 05:22:52;;;;;;;1.10;0.80;;;9.20;99.90;;;;;;5104598;28;20521;-74
2023/01/04 05:25:19;;;;;;;1.00;0.80;;;9.10;99.90;;;;;;5075566;28;20513;-73
2023/01/04 05:27:49;;;;;;;1.20;1.00;;;9.20;99.90;;;;;;5088454;28;20591;-72
2023/01/04 05:33:04;;;;;;;1.70;1.10;;;9.20;99.90;;;;;;5092215;28;20467;-73
2023/01/04 05:35:32;;;;;;;1.10;0.80;;;9.30;99.90;;;;;;5090935;28;20517;-72
2023/01/04 05:38:00;;;;;;;1.30;1.20;;;9.30;99.90;;;;;;5095028;28;20466;-73
2023/01/04 05:40:27;;;;;;;1.23;1.13;;;9.30;99.90;;;;;;5090387;28;20463;-73
2023/01/04 05:42:54;;;;;;;1.07;0.90;;;9.30;99.90;;;;;;5093101;28;20545;-72
2023/01/04 05:45:21;;;;;;;1.43;1.00;;;9.30;99.90;;;;;;5090477;28;20455;-72
2023/01/04 05:47:50;;;;;;;1.73;1.00;;;9.30;99.90;;;;;;5099915;28;20569;-73
2023/01/04 05:50:19;;;;;;;3.10;1.10;;;9.30;99.90;;;;;;5087995;28;20532;-73
2023/01/04 05:52:46;;;;;;;2.43;1.30;;;9.40;99.90;;;;;;5098072;28;20483;-73
2023/01/04 05:55:13;;;;;;;1.33;1.07;;;9.40;99.90;;;;;;5088582;28;20446;-73
2023/01/04 05:57:41;;;;;;;1.00;0.70;;;9.50;99.90;;;;;;5087924;28;20950;-74
2023/01/04 06:00:10;;;;;;;1.00;0.90;;;9.50;99.90;;;;;;5088822;28;20459;-74
2023/01/04 06:02:37;;;;;;;1.47;1.03;;;9.60;99.90;;;;;;5094790;28;20435;-73
2023/01/04 06:05:05;;;;;;;1.00;0.70;;;9.60;99.90;;;;;;5090926;28;20482;-73
2023/01/04 06:07:34;;;;;;;1.33;0.80;;;9.60;99.90;;;;;;5096958;28;20450;-73
2023/01/04 06:10:01;;;;;;;1.00;0.80;;;9.70;99.90;;;;;;5085735;28;20840;-74
2023/01/04 06:12:28;;;;;;;1.27;0.90;;;9.80;99.90;;;;;;5079983;28;20444;-72
2023/01/04 06:14:55;;;;;;;5.77;1.10;;;9.80;99.90;;;;;;5093454;28;20444;-73
2023/01/04 06:17:22;;;;;;;1.00;0.83;;;9.80;99.90;;;;;;5088380;28;20990;-73
2023/01/04 06:19:49;;;;;;;1.80;1.07;;;9.90;99.90;;;;;;5091348;28;20944;-73
2023/01/04 06:22:16;;;;;;;1.10;0.90;;;9.80;99.90;;;;;;5085831;28;21084;-73
2023/01/04 06:24:45;;;;;;;1.00;0.80;;;9.80;99.90;;;;;;5086782;28;20513;-73
2023/01/04 06:27:12;;;;;;;1.40;1.30;;;9.80;99.90;;;;;;5088863;28;20878;-73
2023/01/04 06:29:39;;;;;;;1.07;0.90;;;9.90;99.90;;;;;;5085608;28;20558;-72
2023/01/04 06:32:06;;;;;;;1.30;0.93;;;10.00;99.90;;;;;;5084245;28;21005;-73
2023/01/04 06:34:36;;;;;;;0.97;0.77;;;10.10;99.90;;;;;;5097729;28;20547;-74
2023/01/04 06:37:05;;;;;;;1.27;1.10;;;10.10;99.90;;;;;;5084456;28;20453;-73
2023/01/04 06:39:32;;;;;;;1.67;1.00;;;10.10;99.90;;;;;;5085219;28;20504;-73
2023/01/04 06:42:43;;;;;;;3.10;1.10;;;10.10;99.90;;;;;;5085793;28;20559;-74
2023/01/04 06:44:52;;;;;;;1.47;0.90;;;10.10;99.90;;;;;;5082584;28;20447;-74
2023/01/04 06:47:19;;;;;;;0.90;0.77;;;10.10;99.90;;;;;;5085308;28;20511;-74
2023/01/04 06:49:46;;;;;;;1.30;1.10;;;10.10;99.90;;;;;;5080998;28;20458;-74
2023/01/04 06:52:13;;;;;;;1.30;1.00;;;10.20;99.90;;;;;;5070192;28;20575;-73
2023/01/04 06:54:40;;;;;;;1.47;1.37;;;10.30;99.90;;;;;;5092127;28;20475;-74
2023/01/04 06:57:08;;;;;;;1.10;1.00;;;10.20;99.90;;;;;;5084121;28;20515;-73
2023/01/04 06:59:35;;;;;;;1.33;0.97;;;10.10;99.90;;;;;;5081762;28;20474;-73
2023/01/04 07:02:02;;;;;;;1.00;0.80;;;10.10;99.90;;;;;;5087686;28;20695;-74
2023/01/04 07:04:29;;;;;;;0.90;0.70;;;10.10;99.90;;;;;;5095728;28;21047;-74
2023/01/04 07:06:58;;;;;;;1.20;1.10;;;10.10;99.90;;;;;;5099956;28;20451;-74
2023/01/04 07:09:25;;;;;;;4.93;0.90;;;10.20;99.90;;;;;;5084560;28;20455;-74
2023/01/04 07:11:52;;;;;;;2.60;1.10;;;10.20;99.90;;;;;;5077958;28;20478;-73
2023/01/04 07:14:25;;;;;;;1.60;1.20;;;10.20;99.90;;;;;;5082950;28;20443;-74
2023/01/04 07:16:52;;;;;;;2.10;1.17;;;10.20;99.90;;;;;;5080137;28;20878;-74
2023/01/04 07:19:19;;;;;;;1.37;0.97;;;10.20;99.90;;;;;;5082146;28;20465;-73
2023/01/04 07:21:50;;;;;;;0.97;0.67;;;10.20;99.90;;;;;;5082467;28;20551;-73
2023/01/04 07:24:17;;;;;;;1.77;0.83;;;10.30;99.90;;;;;;5066727;28;20455;-74
2023/01/04 07:26:43;;;;;;;1.20;1.10;;;10.30;99.90;;;;;;5085392;28;20494;-73
2023/01/04 07:29:15;;;;;;;1.67;1.10;;;10.30;99.90;;;;;;5084464;28;20474;-73
2023/01/04 07:31:46;;;;;;;1.50;1.20;;;10.40;99.90;;;;;;5081965;28;20462;-74
2023/01/04 07:34:13;;;;;;;1.20;1.00;;;10.50;99.90;;;;;;5085371;28;20523;-72
2023/01/04 07:36:40;;;;;;;1.17;0.77;;;10.50;99.90;;;;;;5089281;28;20482;-72
2023/01/04 07:39:11;;;;;;;0.90;0.70;;;10.60;99.90;;;;;;5088967;28;20589;-73
2023/01/04 07:41:39;;;;;;;1.10;0.97;;;10.50;99.90;;;;;;5089465;28;20440;-74
2023/01/04 07:44:09;;;;;;;4.10;1.20;;;10.50;99.90;;;;;;5083836;28;20594;-73
2023/01/04 07:46:36;;;;;;;1.47;1.10;;;10.50;99.90;;;;;;5082258;28;20529;-74
2023/01/04 07:49:05;;;;;;;1.00;0.80;;;10.50;99.90;;;;;;5076050;28;20454;-74
2023/01/04 07:51:35;;;;;;;1.50;1.03;;;10.50;99.90;;;;;;5076503;28;20453;-73
2023/01/04 07:54:02;;;;;;;2.50;1.50;;;10.50;99.90;;;;;;5082304;28;20455;-74
2023/01/04 07:56:29;;;;;;;1.10;0.80;;;10.50;99.90;;;;;;5087543;28;20916;-74
2023/01/04 07:58:58;;;;;;;1.93;0.90;;;10.40;99.90;;;;;;5082760;28;20473;-74
2023/01/04 08:01:26;;;;;;;1.47;1.17;;;10.40;99.90;;;;;;5082149;28;20460;-73
2023/01/04 08:03:57;;;;;;;1.03;0.80;;;10.40;99.90;;;;;;5101605;28;20533;-74
2023/01/04 08:06:25;;;;;;;1.20;1.10;;;10.30;99.90;;;;;;5085989;28;20571;-74
2023/01/04 08:08:52;;;;;;;1.10;0.90;;;10.30;99.90;;;;;;5043950;28;20536;-73
2023/01/04 08:11:22;;;;;;;1.10;1.00;;;10.40;99.90;;;;;;5083692;28;20462;-76
2023/01/04 08:13:49;;;;;;;1.00;0.80;;;10.40;99.90;;;;;;5077018;28;20785;-73
2023/01/04 08:16:22;;;;;;;1.00;0.80;;;10.40;99.90;;;;;;5087175;28;20522;-73
2023/01/04 08:18:53;;;;;;;1.83;1.00;;;10.50;99.90;;;;;;5093852;28;20516;-73
2023/01/04 08:21:20;;;;;;;1.20;1.00;;;10.50;99.90;;;;;;5081904;28;20868;-73
2023/01/04 08:23:48;;;;;;;1.10;1.00;;;10.60;99.90;;;;;;5090976;28;20470;-72
2023/01/04 08:26:16;;;;;;;1.20;0.90;;;10.70;99.90;;;;;;5093000;28;20559;-73
2023/01/04 08:28:44;;;;;;;0.90;0.70;;;10.80;99.90;;;;;;5090884;28;20505;-73
2023/01/04 08:31:14;;;;;;;1.00;0.70;;;10.80;99.90;;;;;;5083829;28;20494;-73
2023/01/04 08:33:42;;;;;;;1.10;0.90;;;10.90;99.90;;;;;;5087886;28;20457;-73
2023/01/04 08:36:12;;;;;;;1.20;1.00;;;10.90;99.90;;;;;;5088841;28;20472;-73
2023/01/04 08:38:39;;;;;;;1.00;0.80;;;11.00;99.90;;;;;;5079564;28;20524;-74
2023/01/04 08:41:08;;;;;;;2.33;2.13;;;11.00;99.90;;;;;;5085427;28;20442;-74
2023/01/04 08:43:35;;;;;;;1.60;1.00;;;11.00;99.90;;;;;;5082123;28;20438;-74
2023/01/04 08:46:03;;;;;;;2.17;1.30;;;11.10;99.90;;;;;;5083141;28;20541;-74
2023/01/04 08:48:30;;;;;;;1.40;0.90;;;11.10;99.90;;;;;;5078532;28;20452;-74
2023/01/04 08:51:02;;;;;;;1.10;1.00;;;11.10;99.90;;;;;;5081539;28;20490;-74
2023/01/04 08:53:30;;;;;;;1.27;0.90;;;11.20;99.90;;;;;;5080546;28;20431;-74
2023/01/04 08:55:58;;;;;;;1.10;0.80;;;11.20;99.90;;;;;;5089026;28;20991;-74
2023/01/04 08:58:28;;;;;;;3.37;1.07;;;11.30;99.90;;;;;;5073818;28;20512;-73
2023/01/04 09:01:00;;;;;;;1.03;0.83;;;11.30;99.90;;;;;;5090104;28;20519;-74
2023/01/04 09:03:28;;;;;;;0.90;0.70;;;11.40;99.90;;;;;;5091579;28;20453;-72
2023/01/04 09:06:01;;;;;;;1.00;0.80;;;11.40;99.90;;;;;;5081117;28;20460;-74
2023/01/04 09:08:30;;;;;;;1.30;0.90;;;11.40;99.90;;;;;;5080997;28;20483;-74
2023/01/04 09:10:57;;;;;;;1.93;1.10;;;11.50;99.90;;;;;;5082691;28;20426;-73
2023/01/04 09:13:23;;;;;;;1.00;0.87;;;11.60;99.90;;;;;;5078798;28;20487;-72
2023/01/04 09:15:52;;;;;;;0.90;0.70;;;11.70;99.90;;;;;;5075288;28;20573;-75
2023/01/04 09:18:19;;;;;;;1.10;0.70;;;11.70;99.90;;;;;;5076868;28;21060;-75
2023/01/04 09:20:46;;;;;;;0.93;0.73;;;11.60;99.90;;;;;;5082716;28;20562;-74
2023/01/04 09:23:13;;;;;;;1.00;0.80;;;11.60;99.90;;;;;;5080377;28;20970;-74
2023/01/04 09:25:40;;;;;;;1.60;0.80;;;11.60;99.90;;;;;;5081218;28;20551;-74
2023/01/04 09:28:09;;;;;;;1.10;0.90;;;11.50;99.90;;;;;;5081772;28;20442;-74
2023/01/04 09:30:36;;;;;;;1.63;0.83;;;11.50;99.90;;;;;;5091584;28;20456;-74
2023/01/04 09:33:04;;;;;;;6.20;1.20;;;11.50;99.90;;;;;;5085456;28;20518;-74
2023/01/04 09:35:32;;;;;;;1.30;0.90;;;11.60;99.90;;;;;;5088166;28;20455;-74
2023/01/04 09:37:59;;;;;;;0.97;0.70;;;11.60;99.90;;;;;;5083967;28;20455;-75
2023/01/04 09:40:33;;;;;;;1.10;0.97;;;11.50;99.90;;;;;;5083241;28;20555;-73
2023/01/04 09:43:04;;;;;;;1.33;0.90;;;11.50;99.90;;;;;;5090857;28;20508;-73
2023/01/04 09:45:31;;;;;;;1.20;1.00;;;11.40;99.90;;;;;;5077272;28;20549;-72
2023/01/04 09:48:08;;;;;;;1.00;0.87;;;11.40;99.90;;;;;;5082911;28;20607;-72
2023/01/04 09:50:42;;;;;;;1.30;1.07;;;11.40;99.90;;;;;;5075429;28;20475;-73
2023/01/04 09:53:16;;;;;;;1.37;0.93;;;11.40;99.90;;;;;;5088254;28;20524;-73
2023/01/04 09:55:49;;;;;;;1.10;0.80;;;11.40;99.90;;;;;;5088580;28;20941;-72
2023/01/04 09:58:26;;;;;;;1.20;1.10;;;11.40;99.90;;;;;;5063455;28;20458;-74
2023/01/04 10:01:00;;;;;;;1.20;1.10;;;11.40;99.90;;;;;;5091852;28;20602;-72
2023/01/04 10:03:33;;;;;;;1.60;1.33;;;11.50;99.90;;;;;;5093576;28;20980;-73
2023/01/04 10:06:01;;;;;;;1.00;0.73;;;11.50;99.90;;;;;;5092286;28;20874;-73
2023/01/04 10:08:30;;;;;;;1.53;0.80;;;11.60;99.90;;;;;;5086424;28;20562;-73
2023/01/04 10:11:17;;;;;;;5.23;1.43;;;11.60;99.90;;;;;;5077586;28;20475;-73
2023/01/04 10:13:55;;;;;;;0.90;0.70;;;11.60;99.90;;;;;;5084573;28;20492;-74
2023/01/04 10:16:46;;;;;;;5.27;1.00;;;11.50;99.90;;;;;;5082107;28;21907;-73
2023/01/04 10:19:31;;;;;;;1.23;0.97;;;11.50;99.90;;;;;;5083910;28;20568;-74
2023/01/04 10:22:05;;;;;;;1.20;1.00;;;11.50;99.90;;;;;;5085091;28;20566;-74
2023/01/04 10:24:45;;;;;;;1.60;1.10;;;11.60;99.90;;;;;;5090501;28;20823;-74
2023/01/04 10:27:21;;;;;;;2.70;0.77;;;11.60;99.90;;;;;;5084286;28;20506;-74
2023/01/04 10:29:59;;;;;;;0.90;0.60;;;11.70;99.90;;;;;;5091573;28;20920;-73
2023/01/04 10:32:35;;;;;;;1.57;0.90;;;11.70;99.90;;;;;;5092365;28;20549;-74
2023/01/04 10:35:17;;;;;;;2.03;1.00;;;11.80;99.90;;;;;;5087157;28;20484;-74
2023/01/04 10:37:46;;;;;;;3.23;0.80;;;11.80;99.90;;;;;;5084250;28;20477;-73
2023/01/04 10:40:17;;;;;;;1.00;0.90;;;11.70;99.90;;;;;;5084424;28;20500;-73
2023/01/04 10:42:50;;;;;;;1.07;0.80;;;11.60;99.90;;;;;;5078209;28;20469;-74
2023/01/04 10:45:21;;;;;;;2.23;1.00;;;11.50;99.90;;;;;;5089468;28;20555;-74
2023/01/04 10:47:58;;;;;;;1.20;0.80;;;11.50;99.90;;;;;;5081973;28;20458;-74
2023/01/04 10:50:33;;;;;;;1.37;1.13;;;11.50;99.90;;;;;;5093457;28;20459;-74
2023/01/04 10:53:04;;;;;;;1.30;1.10;;;11.50;99.90;;;;;;5089699;28;20472;-74
2023/01/04 10:55:38;;;;;;;0.90;0.70;;;11.40;99.90;;;;;;5088685;28;20452;-73
2023/01/04 10:58:10;;;;;;;1.00;0.90;;;11.40;99.90;;;;;;5078846;28;20559;-73
2023/01/04 11:00:44;;;;;;;4.53;1.10;;;11.30;99.90;;;;;;5088540;28;20515;-73
2023/01/04 11:03:18;;;;;;;1.07;0.93;;;11.40;99.90;;;;;;5100335;28;20490;-74
2023/01/04 11:05:50;;;;;;;1.13;0.97;;;11.40;99.90;;;;;;5076227;28;20807;-73
2023/01/04 11:08:20;;;;;;;1.00;0.80;;;11.40;99.90;;;;;;5077636;28;20464;-74
2023/01/04 11:10:53;;;;;;;1.10;0.80;;;11.40;99.90;;;;;;5084124;28;20445;-73
2023/01/04 11:13:20;;;;;;;0.90;0.73;;;11.50;99.90;;;;;;5085264;28;20540;-74
2023/01/04 11:15:47;;;;;;;1.33;1.10;;;11.50;99.90;;;;;;5087411;28;20456;-74
2023/01/04 11:18:16;;;;;;;1.00;0.80;;;11.50;99.90;;;;;;5081510;28;20491;-74
2023/01/04 11:20:43;;;;;;;6.60;1.23;;;11.50;99.90;;;;;;5085965;28;20564;-74
2023/01/04 11:23:14;;;;;;;1.10;0.80;;;11.50;99.90;;;;;;5086521;28;20459;-73
2023/01/04 11:25:47;;;;;;;1.30;1.00;;;11.60;99.90;;;;;;5084570;28;20517;-75
2023/01/04 11:28:21;;;;;;;0.90;0.63;;;11.60;99.90;;;;;;5080571;28;20521;-73
2023/01/04 11:30:55;;;;;;;3.43;1.00;;;11.60;99.90;;;;;;5087067;28;20484;-74
2023/01/04 11:33:23;;;;;;;1.20;1.00;;;11.60;99.90;;;;;;5082139;28;20438;-73
2023/01/04 11:35:52;;;;;;;1.23;1.00;;;11.60;99.90;;;;;;5086836;28;20459;-73
2023/01/04 11:38:22;;;;;;;2.20;1.37;;;11.70;99.90;;;;;;5082193;28;20492;-73
2023/01/04 11:40:58;;;;;;;1.30;1.20;;;11.70;99.90;;;;;;5097815;28;20414;-73
2023/01/04 11:43:27;;;;;;;1.10;1.00;;;11.70;99.90;;;;;;5090131;28;20473;-73
2023/01/04 11:45:57;;;;;;;1.40;0.80;;;11.70;99.90;;;;;;5091789;28;20563;-73
2023/01/04 11:48:33;;;;;;;1.97;1.00;;;11.60;99.90;;;;;;5083215;28;20487;-73
2023/01/04 11:51:00;;;;;;;1.80;1.10;;;11.70;99.90;;;;;;5083200;28;20889;-73
2023/01/04 11:53:34;;;;;;;2.10;1.33;;;11.60;99.90;;;;;;5084373;28;20438;-73
2023/01/04 11:56:20;;;;;;;1.30;1.10;;;11.60;99.90;;;;;;5084580;28;20463;-73
2023/01/04 11:59:03;;;;;;;2.03;0.90;;;11.60;99.90;;;;;;5094602;28;20491;-73
2023/01/04 12:01:32;;;;;;;1.03;0.90;;;11.60;99.90;;;;;;5090146;28;20452;-73
2023/01/04 12:04:02;;;;;;;1.10;1.00;;;11.50;99.90;;;;;;5099328;28;20506;-73
2023/01/04 12:06:37;;;;;;;1.10;0.83;;;11.50;99.90;;;;;;5087778;28;20496;-72
2023/01/04 12:09:06;;;;;;;1.37;1.13;;;11.50;99.90;;;;;;5089953;28;20471;-73
2023/01/04 12:11:37;;;;;;;1.27;1.17;;;11.60;99.90;;;;;;5095231;28;20458;-73
2023/01/04 12:14:10;;;;;;;1.20;0.97;;;11.50;99.90;;;;;;5092777;28;20453;-73
2023/01/04 12:16:48;;;;;;;1.20;1.00;;;11.50;99.90;;;;;;5093291;28;20445;-73
2023/01/04 12:19:16;;;;;;;1.30;1.17;;;11.60;99.90;;;;;;5089022;28;20486;-72
2023/01/04 12:21:45;;;;;;;1.57;0.97;;;11.50;99.90;;;;;;5085509;28;20563;-73
2023/01/04 12:24:22;;;;;;;1.53;1.20;;;11.50;99.90;;;;;;5087336;28;20467;-73
2023/01/04 12:26:51;;;;;;;1.50;1.20;;;11.50;99.90;;;;;;5091796;28;20494;-72
2023/01/04 12:29:42;;;;;;;1.83;1.43;;;11.50;99.90;;;;;;5082991;28;20459;-73
2023/01/04 12:32:44;;;;;;;1.60;1.00;;;11.60;99.90;;;;;;5084086;28;20768;-73
2023/01/04 12:36:03;;;;;;;1.30;1.20;;;11.50;99.90;;;;;;5085701;28;20461;-71
2023/01/04 12:38:56;;;;;;;2.13;1.20;;;11.50;99.90;;;;;;5083190;28;20827;-72
2023/01/04 12:41:40;;;;;;;1.30;1.10;;;11.50;99.90;;;;;;5085812;28;20559;-72
2023/01/04 12:44:46;;;;;;;3.67;1.03;;;11.50;99.90;;;;;;5077541;28;20971;-72
2023/01/04 12:50:26;;;;;;;1.07;0.77;;;11.50;99.90;;;;;;5077071;28;20469;-73
2023/01/04 12:52:55;;;;;;;1.00;0.90;;;11.50;99.90;;;;;;5080979;28;20473;-72
2023/01/04 12:55:53;;;;;;;1.10;1.00;;;11.50;99.90;;;;;;5081570;28;20573;-73
2023/01/04 12:59:06;;;;;;;1.00;0.90;;;11.60;99.90;;;;;;5082062;28;20892;-74
2023/01/04 13:01:33;;;;;;;1.67;1.57;;;11.60;99.90;;;;;;5087648;28;20569;-74
2023/01/04 13:04:16;;;;;;;1.20;0.90;;;11.60;99.90;;;;;;5094781;28;20899;-73
2023/01/04 13:06:45;;;;;;;1.47;1.07;;;11.60;99.90;;;;;;5078817;28;20853;-73
2023/01/04 13:09:18;;;;;;;1.50;1.00;;;11.60;99.90;;;;;;5081175;28;20480;-73
2023/01/04 13:12:03;;;;;;;1.10;0.90;;;11.60;99.90;;;;;;5089245;28;20488;-73
2023/01/04 13:14:36;;;;;;;2.53;1.10;;;11.60;99.90;;;;;;5088598;28;20495;-73
2023/01/04 13:17:18;;;;;;;1.30;1.20;;;11.70;99.90;;;;;;5088520;27;20853;-74
2023/01/04 13:19:46;;;;;;;2.17;1.97;;;11.80;99.90;;;;;;5070219;28;20542;-73
2023/01/04 13:22:19;;;;;;;2.13;1.33;;;11.80;99.90;;;;;;5089620;28;20523;-74
2023/01/04 13:24:48;;;;;;;1.20;0.87;;;11.80;99.90;;;;;;5077628;28;20526;-72
2023/01/04 13:27:18;;;;;;;1.20;1.03;;;11.80;99.90;;;;;;5086956;28;20554;-73
2023/01/04 13:29:50;;;;;;;1.10;0.90;;;11.90;99.90;;;;;;5085613;28;20460;-73
2023/01/04 13:32:26;;;;;;;1.10;1.00;;;11.90;99.90;;;;;;5087621;28;20483;-73
2023/01/04 13:34:58;;;;;;;4.07;1.20;;;11.90;99.90;;;;;;5083837;28;21082;-73
2023/01/04 13:37:31;;;;;;;1.20;0.97;;;11.90;99.90;;;;;;5089902;28;20451;-74
2023/01/04 13:40:22;;;;;;;1.93;1.70;;;12.00;99.90;;;;;;5091309;28;21097;-73
2023/01/04 13:42:57;;;;;;;1.10;0.90;;;12.00;99.90;;;;;;5082802;28;20489;-73
2023/01/04 13:45:59;;;;;;;1.27;1.13;;;11.90;99.90;;;;;;5089837;28;21266;-73
2023/01/04 13:48:28;;;;;;;1.40;1.10;;;11.90;99.90;;;;;;5084108;28;20510;-73
2023/01/04 13:51:02;;;;;;;1.00;0.70;;;11.80;99.90;;;;;;5092118;28;20633;-72
2023/01/04 13:53:31;;;;;;;1.37;1.27;;;11.90;99.90;;;;;;5087016;28;20478;-73
2023/01/04 13:56:00;;;;;;;1.70;1.40;;;11.90;99.90;;;;;;5078535;28;20476;-73
2023/01/04 13:58:29;;;;;;;1.97;1.77;;;12.00;99.90;;;;;;5086328;28;20924;-73
2023/01/04 14:01:01;;;;;;;2.20;2.00;;;12.00;99.90;;;;;;5089197;28;20574;-73
2023/01/04 14:03:37;;;;;;;1.00;0.83;;;11.90;99.90;;;;;;5103065;28;20542;-74